createdAt,value
2018-09-21T06:53:28.976Z,19.80
2018-09-21T06:55:58.063Z,20.02
2018-09-21T06:58:26.556Z,20.27
2018-09-21T07:00:55.444Z,20.52
2018-09-21T07:03:23.858Z,20.81
2018-09-21T07:05:52.382Z,21.12
2018-09-21T07:08:20.815Z,21.39
2018-09-21T07:10:49.533Z,21.82
2018-09-21T07:13:18.060Z,22.24
2018-09-21T07:15:46.545Z,22.69
2018-09-21T07:18:14.982Z,23.17
2018-09-21T07:20:43.411Z,23.55
2018-09-21T07:23:11.826Z,23.92
2018-09-21T07:25:40.248Z,24.16
2018-09-21T07:28:08.659Z,24.43
2018-09-21T07:30:37.040Z,24.57
2018-09-21T07:33:05.489Z,24.55
2018-09-21T07:35:34.219Z,24.50
2018-09-21T07:38:02.759Z,24.53
2018-09-21T07:40:31.375Z,24.54
2018-09-21T07:42:59.875Z,24.58
2018-09-21T07:45:28.448Z,24.68
2018-09-21T07:47:57.210Z,24.56
2018-09-21T07:50:25.768Z,24.59
2018-09-21T07:52:54.707Z,24.52
2018-09-21T07:55:23.176Z,24.55
2018-09-21T07:57:51.857Z,24.35
2018-09-21T08:00:20.325Z,24.32
2018-09-21T08:02:49.149Z,24.26
2018-09-21T08:05:21.789Z,24.28
2018-09-21T08:07:50.362Z,24.30
2018-09-21T08:10:18.916Z,24.44
2018-09-21T08:12:47.428Z,24.59
2018-09-21T08:15:16.016Z,24.79
2018-09-21T08:17:44.875Z,24.82
2018-09-21T08:20:13.460Z,24.87
2018-09-21T08:22:42.268Z,24.81
2018-09-21T08:25:10.963Z,24.88
2018-09-21T08:27:39.555Z,25.00
2018-09-21T08:30:08.064Z,25.10
2018-09-21T08:32:36.816Z,25.12
2018-09-21T08:35:05.685Z,25.17
2018-09-21T08:37:34.204Z,25.12
2018-09-21T08:40:02.721Z,25.20
2018-09-21T08:42:31.713Z,25.32
2018-09-21T08:45:00.100Z,25.64
2018-09-21T08:47:28.560Z,25.84
2018-09-21T08:49:57.828Z,26.08
2018-09-21T08:52:26.325Z,26.21
2018-09-21T08:54:54.841Z,26.37
2018-09-21T08:57:23.724Z,26.32
2018-09-21T08:59:52.143Z,26.27
2018-09-21T09:02:20.610Z,26.32
2018-09-21T09:04:49.124Z,26.36
2018-09-21T09:07:17.739Z,26.56
2018-09-21T09:09:46.350Z,26.53
2018-09-21T09:12:14.806Z,26.43
2018-09-21T09:14:43.275Z,26.36
2018-09-21T09:17:11.807Z,26.42
2018-09-21T09:19:40.244Z,26.46
2018-09-21T09:22:08.723Z,26.57
2018-09-21T09:24:37.263Z,26.77
2018-09-21T09:27:05.678Z,26.92
2018-09-21T09:29:34.261Z,27.13
2018-09-21T09:32:02.884Z,27.38
2018-09-21T09:34:31.431Z,27.54
2018-09-21T09:37:00.452Z,27.59
2018-09-21T09:39:28.916Z,27.51
2018-09-21T09:41:57.707Z,27.37
2018-09-21T09:44:26.952Z,27.17
2018-09-21T09:46:55.441Z,26.98
2018-09-21T09:49:24.003Z,26.78
2018-09-21T09:51:52.565Z,26.67
2018-09-21T09:54:21.143Z,26.57
2018-09-21T09:56:49.636Z,26.61
2018-09-21T09:59:18.843Z,26.74
2018-09-21T10:01:47.343Z,26.85
2018-09-21T10:04:16.100Z,26.92
2018-09-21T10:06:44.744Z,26.77
2018-09-21T10:09:13.290Z,26.86
2018-09-21T10:11:41.863Z,26.85
2018-09-21T10:14:10.314Z,26.68
2018-09-21T10:16:38.797Z,26.56
2018-09-21T10:19:07.276Z,26.60
2018-09-21T10:21:35.774Z,26.41
2018-09-21T10:24:04.322Z,26.37
2018-09-21T10:26:33.203Z,26.11
2018-09-21T10:29:01.723Z,26.21
2018-09-21T10:31:30.247Z,26.23
2018-09-21T10:33:59.209Z,26.29
2018-09-21T10:36:28.735Z,26.32
2018-09-21T10:38:57.260Z,26.41
2018-09-21T10:41:26.552Z,26.39
2018-09-21T10:43:55.796Z,26.47
2018-09-21T10:46:24.305Z,26.55
2018-09-21T10:48:53.260Z,26.51
2018-09-21T10:51:21.761Z,26.52
2018-09-21T10:53:50.545Z,26.76
2018-09-21T10:56:19.177Z,26.92
2018-09-21T10:58:47.716Z,26.89
2018-09-21T11:01:16.304Z,26.94
2018-09-21T11:03:44.909Z,26.68
2018-09-21T11:06:13.416Z,26.50
2018-09-21T11:08:41.957Z,26.39
2018-09-21T11:11:10.389Z,26.12
2018-09-21T11:13:38.941Z,25.90
2018-09-21T11:16:07.523Z,25.78
2018-09-21T11:18:36.011Z,25.68
2018-09-21T11:21:04.652Z,25.75
2018-09-21T11:23:33.309Z,25.78
2018-09-21T11:26:01.804Z,25.86
2018-09-21T11:28:30.344Z,25.99
2018-09-21T11:30:59.135Z,26.10
2018-09-21T11:33:27.694Z,26.03
2018-09-21T11:35:56.773Z,26.10
2018-09-21T11:38:25.240Z,26.06
2018-09-21T11:40:54.530Z,26.06
2018-09-21T11:43:23.649Z,26.09
2018-09-21T11:45:52.236Z,26.06
2018-09-21T11:48:20.686Z,26.07
2018-09-21T11:50:49.574Z,26.14
2018-09-21T11:53:18.537Z,26.22
2018-09-21T11:55:47.157Z,26.28
2018-09-21T11:58:15.605Z,26.25
2018-09-21T12:00:44.164Z,26.18
2018-09-21T12:03:12.818Z,26.24
2018-09-21T12:05:41.741Z,26.37
2018-09-21T12:08:10.421Z,26.39
2018-09-21T12:10:39.063Z,26.27
2018-09-21T12:13:07.508Z,26.42
2018-09-21T12:15:35.993Z,26.59
2018-09-21T12:18:04.581Z,26.68
2018-09-21T12:20:33.602Z,26.69
2018-09-21T12:23:02.264Z,26.66
2018-09-21T12:25:31.653Z,26.71
2018-09-21T12:28:00.483Z,26.75
2018-09-21T12:30:29.940Z,26.81
2018-09-21T12:32:58.756Z,26.90
2018-09-21T12:35:27.560Z,27.04
2018-09-21T12:37:56.203Z,26.89
2018-09-21T12:40:24.780Z,26.92
2018-09-21T12:42:53.237Z,26.68
2018-09-21T12:45:21.753Z,26.80
2018-09-21T12:47:50.381Z,26.70
2018-09-21T12:50:18.966Z,26.70
2018-09-21T12:52:47.612Z,26.54
2018-09-21T12:55:18.097Z,26.61
2018-09-21T12:57:47.015Z,26.40
2018-09-21T13:00:15.617Z,26.01
2018-09-21T13:02:44.430Z,25.68
2018-09-21T13:05:13.161Z,25.57
2018-09-21T13:07:41.684Z,25.62
2018-09-21T13:10:09.765Z,25.66
2018-09-21T13:12:38.302Z,25.68
2018-09-21T13:15:07.213Z,25.60
2018-09-21T13:17:35.696Z,25.64
2018-09-21T13:20:04.215Z,25.75
2018-09-21T13:22:33.460Z,25.77
2018-09-21T13:25:02.099Z,25.73
2018-09-21T13:27:31.602Z,25.71
2018-09-21T13:30:00.204Z,25.67
2018-09-21T13:32:28.693Z,25.53
2018-09-21T13:34:57.259Z,25.59
2018-09-21T13:37:25.733Z,25.63
2018-09-21T13:39:54.306Z,25.55
2018-09-21T13:42:22.840Z,25.68
2018-09-21T13:44:51.597Z,25.67
2018-09-21T13:47:20.272Z,25.62
2018-09-21T13:49:48.760Z,25.58
2018-09-21T13:52:17.488Z,25.49
2018-09-21T13:57:18.795Z,25.31
2018-09-21T13:59:47.262Z,25.18
2018-09-21T14:02:15.959Z,25.27
2018-09-21T14:04:46.016Z,25.21
2018-09-21T14:07:14.735Z,24.98
2018-09-21T14:09:43.237Z,25.09
2018-09-21T14:12:11.827Z,25.14
2018-09-21T14:14:40.537Z,25.17
2018-09-21T14:17:08.977Z,25.23
2018-09-21T14:19:44.145Z,25.16
2018-09-21T14:22:12.725Z,25.19
2018-09-21T14:24:41.182Z,25.22
2018-09-21T14:27:09.712Z,25.21
2018-09-21T14:29:38.236Z,25.15
2018-09-21T14:32:07.782Z,25.11
2018-09-21T14:34:36.317Z,25.04
2018-09-21T14:37:05.999Z,25.02
2018-09-21T14:39:34.596Z,24.93
2018-09-21T14:42:03.267Z,24.77
2018-09-21T14:44:32.047Z,24.82
2018-09-21T14:47:00.743Z,24.73
2018-09-21T14:49:29.344Z,24.68
2018-09-21T14:51:58.018Z,24.69
2018-09-21T14:54:26.617Z,24.61
2018-09-21T14:56:55.271Z,24.59
2018-09-21T14:59:23.783Z,24.52
2018-09-21T15:01:52.559Z,24.22
2018-09-21T15:04:22.273Z,23.62
2018-09-21T15:12:37.676Z,22.01
2018-09-21T21:36:39.368Z,14.31
2018-09-21T21:39:08.852Z,14.32
2018-09-21T21:41:37.483Z,14.26
2018-09-21T21:44:05.715Z,14.15
2018-09-21T21:46:34.079Z,14.11
2018-09-21T21:49:02.193Z,14.09
2018-09-21T21:51:30.404Z,14.09
2018-09-21T21:53:58.641Z,14.23
2018-09-21T21:56:26.826Z,14.12
2018-09-21T21:58:55.068Z,14.10
2018-09-21T22:02:39.331Z,14.14
2018-09-21T22:05:07.431Z,14.08
2018-09-21T22:07:36.880Z,14.01
2018-09-21T22:10:06.524Z,14.17
2018-09-21T22:12:40.122Z,13.94
2018-09-21T22:15:13.701Z,14.02
2018-09-21T22:17:41.831Z,14.05
2018-09-21T22:20:10.107Z,14.10
2018-09-21T22:22:38.453Z,14.07
2018-09-21T22:25:06.627Z,14.14
2018-09-21T22:27:34.784Z,14.14
2018-09-21T22:30:02.927Z,14.04
2018-09-21T22:32:31.143Z,13.91
2018-09-21T22:34:59.257Z,13.85
2018-09-21T22:37:27.941Z,13.99
2018-09-21T22:39:56.295Z,13.93
2018-09-21T22:42:24.595Z,13.88
2018-09-21T22:44:52.761Z,13.89
2018-09-21T22:47:20.953Z,13.70
2018-09-21T22:49:49.124Z,13.56
2018-09-21T22:52:17.281Z,13.57
2018-09-21T22:54:45.579Z,13.61
2018-09-21T22:57:13.938Z,13.68
2018-09-21T22:59:42.228Z,13.61
2018-09-21T23:02:10.869Z,13.54
2018-09-21T23:04:39.031Z,13.54
2018-09-21T23:07:10.216Z,13.53
2018-09-21T23:09:38.473Z,13.55
2018-09-21T23:12:06.995Z,13.34
2018-09-21T23:14:35.224Z,13.12
2018-09-21T23:17:03.338Z,13.16
2018-09-21T23:19:31.594Z,13.10
2018-09-21T23:21:59.809Z,13.18
2018-09-21T23:24:27.913Z,13.04
2018-09-21T23:26:56.204Z,13.06
2018-09-21T23:29:24.377Z,12.95
2018-09-21T23:31:52.613Z,12.94
2018-09-21T23:34:20.714Z,12.99
2018-09-21T23:36:48.925Z,13.10
2018-09-21T23:39:17.199Z,13.18
2018-09-21T23:41:45.366Z,13.09
2018-09-21T23:44:13.660Z,12.99
2018-09-21T23:46:42.821Z,13.07
2018-09-21T23:49:11.011Z,12.96
2018-09-21T23:51:39.202Z,12.97
2018-09-21T23:54:07.382Z,12.83
2018-09-21T23:56:35.546Z,12.86
2018-09-21T23:59:04.446Z,12.69
